Time;durP1;ratioP1;P1;durP2;ratioP2;P2;SDS_P1;SDS_P2;PMS_P1;PMS_P2;Temp;Humidity;BMP_temperature;BMP_pressure;BME280_temperature;BME280_humidity;BME280_pressure;Samples;Min_cycle;Max_cycle;Signal;HPM_P1;HPM_P2
2021/09/22 00:00:59;;;;;;;11.43;6.85;;;15.50;57.00;;;;;;5052181;28;20480;-62
2021/09/22 00:03:25;;;;;;;10.55;7.68;;;15.50;57.10;;;;;;5059289;28;20033;-63
2021/09/22 00:05:51;;;;;;;13.50;8.75;;;15.40;57.30;;;;;;5052222;28;20033;-62
2021/09/22 00:08:17;;;;;;;11.90;7.95;;;15.40;57.50;;;;;;5057331;28;20035;-62
2021/09/22 00:10:43;;;;;;;12.85;7.47;;;15.40;57.50;;;;;;5072245;28;20025;-63
2021/09/22 00:13:09;;;;;;;12.38;7.65;;;15.40;57.60;;;;;;5071818;28;20025;-62
2021/09/22 00:15:36;;;;;;;8.85;6.55;;;15.40;57.80;;;;;;5071861;28;20028;-62
2021/09/22 00:18:02;;;;;;;10.23;6.93;;;15.40;57.90;;;;;;5060664;28;20478;-63
2021/09/22 00:20:28;;;;;;;9.82;6.85;;;15.30;58.00;;;;;;5052125;28;20025;-62
2021/09/22 00:22:58;;;;;;;10.35;7.10;;;15.30;58.00;;;;;;5051887;28;20529;-63
2021/09/22 00:25:24;;;;;;;11.63;7.93;;;15.30;57.90;;;;;;5051922;28;20029;-63
2021/09/22 00:27:50;;;;;;;11.02;7.22;;;15.30;57.90;;;;;;5059783;28;20029;-62
2021/09/22 00:30:17;;;;;;;11.70;7.70;;;15.20;57.80;;;;;;5071859;28;20082;-62
2021/09/22 00:32:46;;;;;;;11.15;7.82;;;15.20;57.90;;;;;;5071505;28;20104;-62
2021/09/22 00:35:12;;;;;;;13.45;7.05;;;15.20;57.90;;;;;;5069995;28;20402;-62
2021/09/22 00:37:38;;;;;;;11.70;7.25;;;15.20;58.00;;;;;;5069669;28;20044;-61
2021/09/22 00:40:04;;;;;;;12.10;7.38;;;15.10;58.20;;;;;;5058644;28;20024;-61
2021/09/22 00:42:30;;;;;;;11.82;7.93;;;15.20;58.30;;;;;;5071681;28;20099;-61
2021/09/22 00:44:59;;;;;;;11.70;7.22;;;15.10;58.30;;;;;;5063525;28;20569;-63
2021/09/22 00:47:28;;;;;;;14.75;7.40;;;15.10;58.30;;;;;;5061403;28;20553;-62
2021/09/22 00:49:54;;;;;;;10.82;8.07;;;15.10;58.50;;;;;;5051579;28;20481;-62
2021/09/22 00:52:21;;;;;;;10.88;7.55;;;15.10;58.50;;;;;;5051423;28;20025;-62
2021/09/22 00:54:48;;;;;;;11.02;7.82;;;15.00;58.50;;;;;;5051457;28;20021;-63
2021/09/22 00:57:15;;;;;;;9.35;6.63;;;15.00;58.60;;;;;;5051399;28;20458;-62
2021/09/22 00:59:42;;;;;;;9.82;6.95;;;15.00;58.50;;;;;;5051523;28;20028;-63
2021/09/22 01:02:08;;;;;;;10.70;6.90;;;15.00;58.40;;;;;;5050615;28;20037;-62
2021/09/22 01:04:34;;;;;;;9.52;6.85;;;15.00;58.60;;;;;;5063745;28;20481;-63
2021/09/22 01:07:01;;;;;;;9.90;6.65;;;15.00;58.80;;;;;;5068474;28;20020;-62
2021/09/22 01:09:27;;;;;;;10.82;7.53;;;15.00;58.80;;;;;;5051191;28;20482;-63
2021/09/22 01:11:53;;;;;;;10.43;7.43;;;15.00;58.90;;;;;;5065127;28;20025;-62
2021/09/22 01:14:28;;;;;;;11.70;6.63;;;15.00;58.90;;;;;;5051526;28;20021;-61
2021/09/22 01:16:54;;;;;;;8.80;6.45;;;15.00;59.00;;;;;;5050841;28;20033;-61
2021/09/22 01:19:21;;;;;;;11.45;6.95;;;15.00;58.80;;;;;;5051067;28;20033;-63
2021/09/22 01:21:52;;;;;;;10.15;6.65;;;15.00;58.90;;;;;;5057256;28;20036;-62
2021/09/22 01:24:21;;;;;;;10.40;6.38;;;15.00;58.90;;;;;;5070680;28;20056;-63
2021/09/22 01:26:49;;;;;;;7.25;5.88;;;15.00;58.80;;;;;;5063580;28;20029;-61
2021/09/22 01:29:15;;;;;;;9.32;5.75;;;15.00;58.60;;;;;;5050095;28;20029;-62
2021/09/22 01:31:41;;;;;;;7.90;6.00;;;14.90;58.30;;;;;;5059280;28;20020;-63
2021/09/22 01:34:10;;;;;;;7.32;5.60;;;14.90;58.20;;;;;;5071384;28;20035;-61
2021/09/22 01:36:37;;;;;;;8.88;6.38;;;14.90;58.00;;;;;;5071804;28;20103;-62
2021/09/22 01:39:05;;;;;;;8.68;6.55;;;14.90;57.90;;;;;;5054131;28;20104;-62
2021/09/22 01:41:31;;;;;;;9.63;6.57;;;14.80;58.00;;;;;;5051678;28;20067;-63
2021/09/22 01:43:57;;;;;;;8.05;6.50;;;14.80;57.90;;;;;;5066544;28;20055;-63
2021/09/22 01:46:23;;;;;;;12.73;7.28;;;14.80;57.80;;;;;;5071668;28;20040;-62
2021/09/22 01:48:49;;;;;;;10.85;7.55;;;14.80;57.90;;;;;;5056009;28;20025;-63
2021/09/22 01:51:15;;;;;;;7.68;6.22;;;14.70;58.00;;;;;;5051849;28;20536;-62
2021/09/22 01:53:41;;;;;;;9.32;7.40;;;14.70;58.10;;;;;;5051588;28;20021;-63
2021/09/22 01:56:09;;;;;;;11.02;8.45;;;14.70;58.30;;;;;;5051694;28;20398;-63
2021/09/22 01:58:35;;;;;;;13.15;7.97;;;14.70;59.10;;;;;;5051475;28;20036;-62
2021/09/22 02:01:04;;;;;;;9.35;7.88;;;14.70;58.80;;;;;;5051484;28;20029;-63
2021/09/22 02:03:30;;;;;;;10.90;7.97;;;14.70;59.10;;;;;;5051348;28;20029;-63
2021/09/22 02:05:56;;;;;;;11.73;7.25;;;14.70;59.90;;;;;;5051509;28;20078;-63
2021/09/22 02:08:22;;;;;;;11.02;8.23;;;14.70;59.30;;;;;;5063540;28;20550;-62
2021/09/22 02:10:48;;;;;;;13.45;7.28;;;14.70;59.50;;;;;;5069426;28;20118;-62
2021/09/22 02:13:14;;;;;;;11.68;8.10;;;14.70;59.40;;;;;;5073279;28;20033;-63
2021/09/22 02:15:40;;;;;;;11.75;8.02;;;14.70;59.60;;;;;;5075086;28;20039;-63
2021/09/22 02:18:05;;;;;;;12.77;8.07;;;14.80;59.60;;;;;;5074384;28;20036;-63
2021/09/22 02:20:31;;;;;;;12.30;8.95;;;14.80;59.60;;;;;;5064847;28;20483;-62
2021/09/22 02:22:57;;;;;;;13.32;8.35;;;14.80;59.50;;;;;;5054999;28;20067;-61
2021/09/22 02:25:23;;;;;;;14.60;7.90;;;14.80;59.50;;;;;;5055026;28;20028;-62
2021/09/22 02:27:49;;;;;;;8.60;6.35;;;14.80;59.40;;;;;;5054957;28;20133;-62
2021/09/22 02:30:19;;;;;;;9.32;7.85;;;14.80;59.40;;;;;;5054598;28;20052;-63
2021/09/22 02:32:45;;;;;;;15.35;7.35;;;14.80;59.50;;;;;;5054823;28;20029;-63
2021/09/22 02:35:12;;;;;;;11.52;8.18;;;14.80;59.60;;;;;;5054726;28;20079;-62
2021/09/22 02:37:38;;;;;;;13.07;8.05;;;14.70;59.60;;;;;;5054654;28;20023;-63
2021/09/22 02:40:07;;;;;;;10.50;7.28;;;14.80;59.80;;;;;;5054496;28;20032;-63
2021/09/22 02:42:33;;;;;;;14.65;7.32;;;14.70;59.80;;;;;;5054749;28;20105;-63
2021/09/22 02:44:59;;;;;;;13.43;8.63;;;14.70;59.80;;;;;;5054745;28;20445;-62
2021/09/22 02:47:25;;;;;;;15.68;8.60;;;14.70;59.90;;;;;;5054544;28;20082;-62
2021/09/22 02:49:52;;;;;;;10.23;8.13;;;14.70;59.90;;;;;;5054511;28;20104;-62
2021/09/22 02:52:17;;;;;;;11.25;8.68;;;14.60;60.60;;;;;;5054420;28;20067;-63
2021/09/22 02:54:43;;;;;;;11.93;7.70;;;14.60;59.90;;;;;;5054444;28;20437;-63
2021/09/22 02:57:09;;;;;;;10.25;8.23;;;14.60;59.90;;;;;;5054399;28;20412;-63
2021/09/22 02:59:35;;;;;;;14.32;9.10;;;14.60;59.90;;;;;;5054565;28;20458;-62
2021/09/22 03:02:01;;;;;;;11.35;7.95;;;14.60;59.90;;;;;;5073361;28;20620;-62
2021/09/22 03:04:26;;;;;;;12.25;8.00;;;14.50;59.80;;;;;;5054192;28;20036;-64
2021/09/22 03:06:52;;;;;;;9.75;7.53;;;14.50;59.90;;;;;;5054173;28;20021;-63
2021/09/22 03:09:18;;;;;;;12.40;8.20;;;14.50;59.70;;;;;;5057517;28;20478;-63
2021/09/22 03:11:44;;;;;;;10.45;7.97;;;14.40;59.70;;;;;;5053738;28;20037;-62
2021/09/22 03:14:09;;;;;;;9.40;7.53;;;14.40;59.70;;;;;;5053856;28;20108;-63
2021/09/22 03:16:35;;;;;;;11.82;8.90;;;14.40;59.50;;;;;;5053790;28;20025;-62
2021/09/22 03:19:01;;;;;;;13.80;9.45;;;14.40;59.80;;;;;;5053795;28;20025;-62
2021/09/22 03:21:29;;;;;;;14.73;9.93;;;14.30;60.00;;;;;;5053663;28;20103;-63
2021/09/22 03:23:54;;;;;;;16.52;9.95;;;14.30;60.00;;;;;;5053256;28;20491;-62
2021/09/22 03:26:21;;;;;;;15.02;11.15;;;14.30;60.00;;;;;;5053645;28;20033;-63
2021/09/22 03:28:47;;;;;;;14.00;10.45;;;14.30;60.10;;;;;;5053405;28;20037;-62
2021/09/22 03:31:13;;;;;;;14.10;10.95;;;14.30;59.90;;;;;;5053398;28;20028;-62
2021/09/22 03:33:39;;;;;;;14.68;9.90;;;14.30;59.90;;;;;;5059103;28;20533;-62
2021/09/22 03:36:05;;;;;;;17.10;11.35;;;14.30;59.80;;;;;;5073158;28;20064;-63
2021/09/22 03:38:31;;;;;;;13.20;10.32;;;14.30;59.80;;;;;;5073088;28;20051;-61
2021/09/22 03:40:58;;;;;;;13.60;9.93;;;14.30;59.70;;;;;;5062836;28;20038;-62
2021/09/22 03:43:24;;;;;;;13.45;9.68;;;14.30;59.80;;;;;;5073173;28;20552;-63
2021/09/22 03:45:50;;;;;;;12.43;9.85;;;14.30;59.60;;;;;;5073151;28;20029;-62
2021/09/22 03:48:16;;;;;;;15.75;11.55;;;14.30;59.60;;;;;;5072809;28;20024;-62
2021/09/22 03:50:42;;;;;;;13.88;10.40;;;14.30;59.60;;;;;;5064210;28;20032;-63
2021/09/22 03:53:09;;;;;;;12.95;10.40;;;14.30;59.50;;;;;;5052746;28;20479;-62
2021/09/22 03:55:34;;;;;;;16.65;10.30;;;14.30;59.60;;;;;;5051710;28;20432;-64
2021/09/22 03:58:00;;;;;;;12.25;10.40;;;14.20;59.50;;;;;;5053194;28;20154;-62
2021/09/22 04:00:26;;;;;;;13.55;10.15;;;14.20;59.50;;;;;;5052943;28;20103;-62
2021/09/22 04:02:52;;;;;;;14.45;11.02;;;14.20;59.60;;;;;;5069310;28;20513;-63
2021/09/22 04:05:18;;;;;;;12.02;9.82;;;14.20;59.70;;;;;;5069549;28;20035;-63
2021/09/22 04:07:44;;;;;;;18.13;11.80;;;14.20;59.70;;;;;;5052728;28;20025;-62
2021/09/22 04:10:10;;;;;;;16.48;11.95;;;14.30;59.80;;;;;;5052548;28;20541;-62
2021/09/22 04:12:36;;;;;;;18.02;10.73;;;14.30;59.80;;;;;;5052917;28;20386;-62
2021/09/22 04:15:03;;;;;;;15.70;10.52;;;14.30;59.70;;;;;;5052574;28;20025;-62
2021/09/22 04:17:28;;;;;;;16.50;11.38;;;14.30;60.00;;;;;;5052462;28;20029;-61
2021/09/22 04:19:54;;;;;;;14.52;11.65;;;14.40;60.00;;;;;;5052507;28;20492;-62
2021/09/22 04:22:20;;;;;;;17.55;11.07;;;14.30;60.00;;;;;;5052576;28;20029;-63
2021/09/22 04:24:46;;;;;;;13.93;10.07;;;14.30;60.10;;;;;;5052557;28;20097;-62
2021/09/22 04:27:12;;;;;;;16.42;10.60;;;14.30;60.20;;;;;;5052355;28;20028;-62
2021/09/22 04:29:37;;;;;;;13.27;9.98;;;14.30;60.20;;;;;;5052607;28;20029;-62
2021/09/22 04:32:04;;;;;;;14.80;10.38;;;14.30;60.10;;;;;;5052322;28;20108;-62
2021/09/22 04:34:30;;;;;;;14.50;10.43;;;14.30;60.20;;;;;;5052141;28;20074;-63
2021/09/22 04:36:56;;;;;;;14.93;11.18;;;14.30;60.20;;;;;;5051861;28;20421;-63
2021/09/22 04:39:21;;;;;;;14.75;9.88;;;14.30;60.10;;;;;;5050988;28;20082;-63
2021/09/22 04:41:47;;;;;;;13.80;10.77;;;14.30;60.00;;;;;;5055565;28;20029;-62
2021/09/22 04:44:13;;;;;;;19.60;12.20;;;14.30;60.00;;;;;;5052314;28;20064;-62
2021/09/22 04:46:40;;;;;;;13.35;10.75;;;14.30;59.90;;;;;;5052368;28;20445;-63
2021/09/22 04:49:05;;;;;;;12.88;9.70;;;14.30;60.10;;;;;;5052081;28;20029;-62
2021/09/22 04:51:31;;;;;;;12.10;9.38;;;14.30;60.00;;;;;;5051999;28;20056;-62
2021/09/22 04:53:57;;;;;;;18.42;11.13;;;14.40;59.90;;;;;;5052048;28;20029;-62
2021/09/22 04:56:23;;;;;;;16.90;10.43;;;14.40;59.80;;;;;;5052053;28;20526;-62
2021/09/22 04:58:49;;;;;;;15.20;10.10;;;14.30;59.80;;;;;;5052063;28;20021;-63
2021/09/22 05:01:15;;;;;;;16.15;10.65;;;14.40;60.40;;;;;;5055180;28;20032;-63
2021/09/22 05:03:42;;;;;;;15.48;11.60;;;14.40;59.70;;;;;;5071802;28;20108;-62
2021/09/22 05:06:08;;;;;;;21.92;11.35;;;14.40;59.60;;;;;;5056496;28;20044;-63
2021/09/22 05:08:34;;;;;;;12.77;9.45;;;14.40;59.70;;;;;;5070994;28;20393;-62
2021/09/22 05:10:59;;;;;;;14.45;10.50;;;14.30;59.60;;;;;;5063385;28;20075;-62
2021/09/22 05:13:25;;;;;;;10.88;9.15;;;14.40;59.70;;;;;;5051783;28;20033;-62
2021/09/22 05:15:51;;;;;;;12.70;9.60;;;14.30;59.60;;;;;;5051977;28;20029;-62
2021/09/22 05:18:17;;;;;;;15.10;11.02;;;14.30;59.50;;;;;;5060313;28;20024;-63
2021/09/22 05:20:43;;;;;;;11.73;9.77;;;14.30;59.40;;;;;;5063940;28;20108;-62
2021/09/22 05:23:10;;;;;;;14.10;10.63;;;14.40;59.30;;;;;;5051754;28;20033;-61
2021/09/22 05:25:35;;;;;;;12.90;10.25;;;14.30;59.10;;;;;;5054197;28;20415;-62
2021/09/22 05:28:01;;;;;;;14.52;10.40;;;14.40;59.20;;;;;;5069370;28;20078;-61
2021/09/22 05:30:27;;;;;;;25.95;11.23;;;14.40;59.20;;;;;;5062133;28;20021;-63
2021/09/22 05:32:53;;;;;;;15.75;11.95;;;14.40;59.20;;;;;;5049605;28;20078;-62
2021/09/22 05:35:19;;;;;;;13.63;10.48;;;14.40;59.10;;;;;;5051518;28;20489;-61
2021/09/22 05:37:45;;;;;;;16.85;12.02;;;14.40;59.00;;;;;;5052692;28;20033;-63
2021/09/22 05:40:10;;;;;;;20.35;11.15;;;14.40;58.80;;;;;;5051466;28;20028;-63
2021/09/22 05:42:36;;;;;;;15.02;11.68;;;14.40;58.80;;;;;;5051645;28;20029;-63
2021/09/22 05:45:04;;;;;;;18.02;11.25;;;14.40;58.80;;;;;;5051669;28;20021;-61
2021/09/22 05:47:30;;;;;;;15.30;12.25;;;14.50;58.80;;;;;;5053840;28;20041;-62
2021/09/22 05:49:56;;;;;;;15.23;11.05;;;14.50;58.70;;;;;;5055291;28;20092;-62
2021/09/22 05:52:22;;;;;;;15.35;12.07;;;14.50;58.60;;;;;;5054916;28;20024;-61
2021/09/22 05:54:48;;;;;;;18.85;12.07;;;14.60;58.50;;;;;;5060508;28;20024;-62
2021/09/22 05:57:14;;;;;;;14.32;11.25;;;14.60;58.20;;;;;;5073007;28;20031;-62
2021/09/22 05:59:40;;;;;;;18.02;11.55;;;14.60;58.10;;;;;;5058925;28;20021;-62
2021/09/22 06:02:09;;;;;;;16.20;12.02;;;14.60;58.10;;;;;;5068674;28;20045;-62
2021/09/22 06:04:34;;;;;;;15.80;12.32;;;14.70;58.10;;;;;;5075060;28;20533;-63
2021/09/22 06:07:00;;;;;;;17.55;12.32;;;14.70;57.90;;;;;;5071280;28;20111;-62
2021/09/22 06:09:26;;;;;;;15.75;12.38;;;14.70;57.60;;;;;;5063733;28;20059;-62
2021/09/22 06:11:52;;;;;;;15.38;12.25;;;14.80;57.50;;;;;;5075135;28;20070;-62
2021/09/22 06:14:18;;;;;;;20.27;13.55;;;14.80;57.50;;;;;;5055414;28;20082;-61
2021/09/22 06:16:44;;;;;;;19.20;12.88;;;14.80;57.20;;;;;;5059300;28;20025;-61
2021/09/22 06:19:10;;;;;;;16.63;12.55;;;14.80;57.00;;;;;;5073770;28;20032;-62
2021/09/22 06:21:36;;;;;;;17.60;13.15;;;14.80;57.00;;;;;;5074297;28;20021;-62
2021/09/22 06:24:03;;;;;;;17.83;14.00;;;14.80;57.00;;;;;;5074072;28;20036;-62
2021/09/22 06:26:29;;;;;;;16.45;12.30;;;14.80;57.60;;;;;;5074823;28;20028;-62
2021/09/22 06:28:55;;;;;;;25.00;14.02;;;14.80;58.00;;;;;;5058701;28;20058;-63
2021/09/22 06:31:21;;;;;;;16.55;12.57;;;14.80;58.00;;;;;;5072996;28;20028;-63
2021/09/22 06:33:47;;;;;;;18.02;13.68;;;14.80;58.80;;;;;;5072758;28;20103;-61
2021/09/22 06:36:13;;;;;;;17.80;13.38;;;14.70;58.80;;;;;;5056570;28;20497;-62
2021/09/22 06:38:39;;;;;;;22.48;14.50;;;14.70;58.80;;;;;;5058086;28;20031;-63
2021/09/22 06:41:05;;;;;;;17.17;14.05;;;14.60;59.40;;;;;;5060671;28;20475;-62
2021/09/22 06:43:31;;;;;;;21.73;14.02;;;14.60;60.20;;;;;;5065513;28;20040;-63
2021/09/22 06:45:57;;;;;;;17.92;13.73;;;14.50;60.00;;;;;;5073909;28;20042;-63
2021/09/22 06:48:25;;;;;;;18.60;13.93;;;14.50;60.60;;;;;;5068337;28;20032;-64
2021/09/22 06:50:52;;;;;;;20.08;12.88;;;14.50;61.20;;;;;;5070261;28;20420;-62
2021/09/22 06:53:17;;;;;;;17.73;12.55;;;14.50;61.70;;;;;;5063261;28;20028;-63
2021/09/22 06:55:43;;;;;;;18.15;14.07;;;14.50;61.20;;;;;;5087442;28;20059;-65
2021/09/22 06:58:09;;;;;;;21.63;14.40;;;14.50;61.00;;;;;;5067614;28;20029;-64
2021/09/22 07:00:36;;;;;;;23.02;14.32;;;14.40;61.50;;;;;;5084059;28;20379;-63
2021/09/22 07:03:05;;;;;;;18.13;14.13;;;14.40;62.00;;;;;;5093020;28;20127;-63
2021/09/22 07:05:31;;;;;;;20.15;14.85;;;14.40;62.20;;;;;;5080976;28;20032;-64
2021/09/22 07:07:57;;;;;;;19.23;14.95;;;14.40;62.50;;;;;;5073745;28;20408;-63
2021/09/22 07:10:23;;;;;;;20.13;15.32;;;14.40;63.10;;;;;;5064964;28;20023;-64
2021/09/22 07:12:50;;;;;;;18.58;13.88;;;14.30;64.40;;;;;;5052924;28;20021;-65
2021/09/22 07:15:16;;;;;;;23.33;16.00;;;14.30;63.70;;;;;;5053176;28;20017;-66
2021/09/22 07:17:42;;;;;;;19.63;16.20;;;14.20;64.60;;;;;;5053163;28;20040;-67
2021/09/22 07:20:09;;;;;;;18.83;16.02;;;14.20;64.80;;;;;;5053988;28;20046;-67
2021/09/22 07:22:35;;;;;;;25.05;16.35;;;14.10;65.20;;;;;;5061313;28;20074;-68
2021/09/22 07:25:01;;;;;;;21.42;16.65;;;14.10;66.10;;;;;;5073595;28;20509;-67
2021/09/22 07:27:27;;;;;;;24.60;17.08;;;14.10;66.40;;;;;;5073582;28;20102;-65
2021/09/22 07:29:54;;;;;;;20.65;16.42;;;14.10;66.20;;;;;;5072810;28;20036;-65
2021/09/22 07:32:21;;;;;;;22.20;16.55;;;14.10;66.40;;;;;;5072583;28;20044;-66
2021/09/22 07:34:46;;;;;;;21.75;15.65;;;14.00;66.50;;;;;;5056874;28;20108;-66
2021/09/22 07:37:12;;;;;;;25.08;16.35;;;14.00;66.60;;;;;;5051746;28;20112;-66
2021/09/22 07:39:40;;;;;;;22.08;16.52;;;14.00;67.00;;;;;;5053298;28;20021;-66
2021/09/22 07:42:11;;;;;;;21.08;16.63;;;14.00;67.40;;;;;;5053445;28;20017;-65
2021/09/22 07:44:38;;;;;;;19.90;15.52;;;14.00;67.20;;;;;;5053492;28;20087;-65
2021/09/22 07:47:04;;;;;;;17.88;14.73;;;14.00;67.40;;;;;;5053045;28;20079;-65
2021/09/22 07:49:30;;;;;;;18.40;14.18;;;14.10;67.80;;;;;;5051876;28;20040;-64
2021/09/22 07:51:56;;;;;;;20.73;13.68;;;14.10;67.40;;;;;;5063425;28;20028;-65
2021/09/22 07:54:22;;;;;;;17.60;13.90;;;14.10;67.20;;;;;;5051972;28;20029;-65
2021/09/22 07:56:48;;;;;;;18.25;13.68;;;14.20;67.10;;;;;;5052780;28;20028;-64
2021/09/22 07:59:13;;;;;;;17.50;12.68;;;14.20;66.90;;;;;;5052145;28;20386;-65
2021/09/22 08:01:39;;;;;;;19.40;13.95;;;14.20;66.90;;;;;;5052736;28;20076;-66
2021/09/22 08:04:05;;;;;;;20.55;13.57;;;14.30;66.40;;;;;;5052956;28;20036;-65
2021/09/22 08:06:31;;;;;;;20.17;14.38;;;14.30;65.90;;;;;;5052954;28;20043;-65
2021/09/22 08:08:56;;;;;;;19.65;13.63;;;14.30;65.70;;;;;;5051512;28;20048;-66
2021/09/22 08:11:22;;;;;;;21.98;12.85;;;14.30;66.00;;;;;;5053091;28;20431;-65
2021/09/22 08:13:48;;;;;;;15.95;12.95;;;14.30;66.20;;;;;;5062499;28;20024;-65
2021/09/22 08:16:14;;;;;;;18.05;13.57;;;14.30;66.10;;;;;;5053054;28;20017;-65
2021/09/22 08:18:45;;;;;;;18.60;14.20;;;14.40;66.10;;;;;;5060407;28;20040;-65
2021/09/22 08:21:12;;;;;;;15.75;12.23;;;14.50;65.90;;;;;;5051868;28;20033;-65
2021/09/22 08:23:37;;;;;;;20.27;14.05;;;14.60;66.10;;;;;;5058344;28;20021;-65
2021/09/22 08:26:03;;;;;;;19.58;14.38;;;14.60;65.10;;;;;;5052616;28;20047;-65
2021/09/22 08:28:29;;;;;;;18.05;13.75;;;14.70;65.30;;;;;;5052518;28;20035;-65
2021/09/22 08:30:55;;;;;;;15.43;12.45;;;14.80;65.40;;;;;;5062440;28;20485;-64
2021/09/22 08:33:20;;;;;;;18.65;13.95;;;14.90;65.50;;;;;;5052439;28;20017;-65
2021/09/22 08:35:46;;;;;;;16.75;12.73;;;15.00;65.00;;;;;;5065427;28;20029;-66
2021/09/22 08:38:12;;;;;;;20.98;13.93;;;15.10;64.30;;;;;;5055878;28;20421;-65
2021/09/22 08:40:38;;;;;;;16.50;13.15;;;15.20;63.70;;;;;;5060250;28;20039;-65
2021/09/22 08:43:04;;;;;;;16.75;13.45;;;15.30;63.60;;;;;;5065007;28;20388;-66
2021/09/22 08:45:33;;;;;;;17.05;12.77;;;15.40;63.20;;;;;;5052189;28;20033;-65
2021/09/22 08:47:59;;;;;;;16.70;13.77;;;15.50;63.10;;;;;;5057563;28;20047;-65
2021/09/22 08:50:26;;;;;;;17.25;13.43;;;15.60;63.00;;;;;;5063381;28;20032;-65
2021/09/22 08:52:52;;;;;;;16.95;12.32;;;15.70;63.10;;;;;;5065545;28;20592;-66
2021/09/22 08:55:18;;;;;;;16.70;12.40;;;15.70;62.00;;;;;;5071922;28;20021;-65
2021/09/22 08:57:44;;;;;;;14.50;12.00;;;15.80;61.50;;;;;;5071093;28;20036;-66
2021/09/22 09:00:13;;;;;;;16.88;12.80;;;15.90;61.40;;;;;;5069125;28;20025;-65
2021/09/22 09:02:41;;;;;;;14.98;12.00;;;15.90;60.60;;;;;;5057288;28;20080;-65
2021/09/22 09:05:11;;;;;;;17.10;11.35;;;15.90;60.10;;;;;;5057478;28;20024;-65
2021/09/22 09:07:55;;;;;;;15.90;12.68;;;15.90;60.40;;;;;;5057441;28;20090;-66
2021/09/22 09:10:30;;;;;;;23.52;13.48;;;16.00;60.10;;;;;;5055380;28;20052;-65
2021/09/22 09:13:08;;;;;;;16.75;12.68;;;16.00;59.40;;;;;;5067200;28;20025;-65
2021/09/22 09:15:41;;;;;;;16.02;12.15;;;15.90;59.10;;;;;;5061535;28;20032;-66
2021/09/22 09:18:17;;;;;;;16.93;13.47;;;16.00;59.70;;;;;;5052767;28;20021;-66
2021/09/22 09:20:47;;;;;;;20.70;13.45;;;16.00;59.40;;;;;;5088647;28;20020;-66
2021/09/22 09:23:16;;;;;;;19.33;11.48;;;16.00;59.40;;;;;;5074359;28;20374;-66
2021/09/22 09:25:56;;;;;;;14.02;11.80;;;16.10;60.00;;;;;;5064214;28;20028;-66
2021/09/22 09:28:28;;;;;;;14.32;12.07;;;16.30;60.70;;;;;;5057494;28;20120;-66
2021/09/22 09:31:04;;;;;;;16.10;12.40;;;16.40;59.50;;;;;;5061268;28;20419;-66
2021/09/22 09:33:40;;;;;;;15.27;11.43;;;16.50;58.90;;;;;;5071044;28;20016;-66
2021/09/22 09:36:31;;;;;;;15.65;11.57;;;16.50;59.00;;;;;;5071624;28;20413;-67
2021/09/22 09:39:03;;;;;;;16.08;12.43;;;16.60;58.80;;;;;;5070644;28;20035;-67
2021/09/22 09:41:32;;;;;;;15.48;12.68;;;16.70;58.40;;;;;;5074444;28;20054;-66
2021/09/22 09:44:00;;;;;;;17.02;12.32;;;16.70;58.10;;;;;;5085211;28;20021;-67
2021/09/22 09:46:28;;;;;;;16.48;12.35;;;16.80;58.60;;;;;;5070966;28;20112;-66
2021/09/22 09:48:59;;;;;;;17.88;12.07;;;16.90;58.30;;;;;;5067805;28;20037;-67
2021/09/22 09:51:33;;;;;;;14.40;12.32;;;17.00;58.20;;;;;;5063516;28;20056;-66
2021/09/22 09:54:19;;;;;;;17.40;12.23;;;17.20;58.20;;;;;;5051710;28;20470;-66
2021/09/22 09:56:45;;;;;;;14.40;11.48;;;17.30;57.90;;;;;;5052245;28;20505;-66
2021/09/22 09:59:12;;;;;;;17.30;12.52;;;17.40;57.70;;;;;;5051676;28;20121;-67
2021/09/22 10:01:39;;;;;;;12.57;10.52;;;17.50;57.00;;;;;;5050425;28;20048;-67
2021/09/22 10:04:06;;;;;;;14.70;11.70;;;17.60;57.00;;;;;;5085285;28;20032;-67
2021/09/22 10:06:32;;;;;;;13.98;10.57;;;17.70;56.50;;;;;;5056201;28;20368;-67
2021/09/22 10:08:58;;;;;;;14.38;10.73;;;17.90;57.10;;;;;;5051188;28;20021;-66
2021/09/22 10:11:25;;;;;;;13.40;10.48;;;17.90;56.40;;;;;;5066958;28;20078;-67
2021/09/22 10:13:52;;;;;;;12.27;10.07;;;18.00;55.80;;;;;;5057918;28;20058;-67
2021/09/22 10:16:19;;;;;;;14.32;10.43;;;18.00;55.60;;;;;;5071595;28;20028;-67
2021/09/22 10:18:48;;;;;;;12.88;11.00;;;18.10;55.60;;;;;;5051849;28;20466;-67
2021/09/22 10:21:15;;;;;;;14.55;11.00;;;18.10;56.10;;;;;;5051013;28;20544;-67
2021/09/22 10:23:43;;;;;;;18.08;11.05;;;18.10;55.10;;;;;;5053679;28;20036;-67
2021/09/22 10:26:09;;;;;;;14.20;10.18;;;18.20;55.40;;;;;;5080222;28;20012;-68
2021/09/22 10:28:41;;;;;;;20.60;11.32;;;18.20;55.40;;;;;;5053743;28;20017;-67
2021/09/22 10:31:18;;;;;;;11.63;9.48;;;18.20;54.80;;;;;;5053171;28;20028;-68
2021/09/22 10:33:45;;;;;;;11.77;9.43;;;18.30;55.40;;;;;;5055113;28;20412;-67
2021/09/22 10:36:11;;;;;;;16.92;10.20;;;18.40;55.70;;;;;;5068877;28;20028;-66
2021/09/22 10:38:43;;;;;;;13.23;10.60;;;18.40;55.10;;;;;;5072029;28;20031;-67
2021/09/22 10:41:11;;;;;;;12.88;9.85;;;18.40;54.70;;;;;;5054426;28;20365;-66
2021/09/22 10:43:46;;;;;;;15.13;11.25;;;18.40;54.90;;;;;;5065071;28;20119;-66
2021/09/22 10:46:17;;;;;;;15.98;10.65;;;18.40;55.20;;;;;;5069832;28;20028;-66
2021/09/22 10:48:54;;;;;;;14.18;10.20;;;18.50;54.50;;;;;;5057800;28;20024;-67
2021/09/22 10:51:42;;;;;;;14.30;10.30;;;18.50;54.70;;;;;;5064925;28;20021;-67
2021/09/22 10:54:27;;;;;;;15.57;9.95;;;18.50;53.50;;;;;;5073207;28;20496;-67
2021/09/22 10:56:54;;;;;;;12.90;9.25;;;18.60;54.00;;;;;;5054598;28;20471;-67
2021/09/22 10:59:29;;;;;;;14.40;10.35;;;18.60;54.60;;;;;;5072497;28;20103;-67
2021/09/22 11:01:56;;;;;;;13.63;10.68;;;18.60;53.80;;;;;;5072766;28;20152;-66
2021/09/22 11:04:23;;;;;;;14.40;10.07;;;18.60;52.90;;;;;;5067677;28;20115;-67
2021/09/22 11:06:50;;;;;;;13.40;10.32;;;18.50;53.40;;;;;;5061343;28;20030;-67
2021/09/22 11:09:21;;;;;;;15.73;9.88;;;18.50;53.50;;;;;;5072667;28;20032;-66
2021/09/22 11:11:56;;;;;;;18.42;10.57;;;18.50;53.00;;;;;;5073169;28;20051;-67
2021/09/22 11:14:30;;;;;;;14.52;10.15;;;18.50;53.30;;;;;;5072773;28;20021;-67
2021/09/22 11:17:13;;;;;;;15.05;11.18;;;18.50;53.40;;;;;;5053605;28;20017;-66
2021/09/22 11:19:40;;;;;;;15.18;9.73;;;18.40;52.90;;;;;;5053906;28;20115;-66
2021/09/22 11:22:15;;;;;;;16.08;9.98;;;18.40;53.20;;;;;;5053923;28;20037;-66
2021/09/22 11:24:42;;;;;;;15.45;9.60;;;18.40;53.40;;;;;;5053932;28;20475;-67
2021/09/22 11:27:13;;;;;;;12.77;9.90;;;18.30;52.70;;;;;;5053592;28;20021;-67
2021/09/22 11:29:43;;;;;;;18.95;11.00;;;18.30;52.60;;;;;;5061555;28;20025;-67
2021/09/22 11:32:34;;;;;;;15.25;10.55;;;18.30;52.50;;;;;;5087646;28;20031;-66
2021/09/22 11:35:18;;;;;;;11.18;9.25;;;18.30;53.00;;;;;;5073572;28;20379;-67
2021/09/22 11:37:48;;;;;;;13.45;9.15;;;18.40;53.70;;;;;;5051660;28;20029;-67
2021/09/22 11:40:35;;;;;;;13.27;9.57;;;18.50;53.70;;;;;;5050773;28;20029;-67
2021/09/22 11:43:06;;;;;;;12.63;9.05;;;18.50;52.90;;;;;;5053480;28;20017;-67
2021/09/22 11:45:43;;;;;;;14.82;9.27;;;18.50;52.90;;;;;;5052997;28;20025;-66
2021/09/22 11:48:11;;;;;;;14.18;9.57;;;18.60;53.30;;;;;;5053029;28;20029;-67
2021/09/22 11:50:43;;;;;;;16.42;10.57;;;18.50;52.60;;;;;;5053334;28;20096;-67
2021/09/22 11:53:13;;;;;;;13.55;9.73;;;18.60;52.90;;;;;;5053481;28;20113;-67
2021/09/22 11:55:40;;;;;;;13.27;9.65;;;18.60;53.30;;;;;;5053411;28;20032;-68
2021/09/22 11:58:11;;;;;;;14.68;9.05;;;18.60;53.40;;;;;;5053231;28;20033;-67
2021/09/22 12:00:39;;;;;;;13.00;9.43;;;18.70;53.20;;;;;;5053362;28;20035;-68
2021/09/22 12:03:09;;;;;;;12.70;9.45;;;18.80;53.10;;;;;;5052894;28;20045;-67
2021/09/22 12:05:36;;;;;;;15.75;9.45;;;18.90;52.50;;;;;;5053197;28;20033;-67
2021/09/22 12:08:02;;;;;;;16.00;9.30;;;19.00;52.10;;;;;;5053041;28;20055;-66
2021/09/22 12:10:28;;;;;;;15.18;9.25;;;19.00;51.90;;;;;;5052720;28;20517;-67
2021/09/22 12:13:00;;;;;;;11.50;8.48;;;19.10;51.50;;;;;;5053093;28;20033;-65
2021/09/22 12:15:26;;;;;;;13.10;8.77;;;19.20;52.30;;;;;;5052695;28;20032;-65
2021/09/22 12:17:52;;;;;;;10.20;7.15;;;19.20;51.30;;;;;;5052882;28;20071;-65
2021/09/22 12:20:19;;;;;;;13.50;9.27;;;19.20;52.30;;;;;;5052823;28;20032;-65
2021/09/22 12:23:03;;;;;;;10.90;8.55;;;19.30;51.80;;;;;;5057671;28;20482;-65
2021/09/22 12:25:31;;;;;;;11.02;6.70;;;19.30;52.30;;;;;;5068904;28;20028;-64
2021/09/22 12:27:58;;;;;;;11.48;7.00;;;19.40;53.00;;;;;;5055412;28;20036;-65
2021/09/22 12:30:36;;;;;;;9.43;7.68;;;19.50;52.70;;;;;;5057015;28;20025;-63
2021/09/22 12:33:07;;;;;;;11.95;8.07;;;19.70;52.00;;;;;;5062343;28;20074;-64